Latest Weather Observations for Swanbourne

IDW60801

Issued at 8:03 am WST Saturday 24 June 2017 (issued every 30 minutes, with the page automatically refreshed every 10 minutes)

About weather observations | Map of weather stations | Latest weather observations for WA | Other Formats
Station Details ID: 009215 Name: SWANBOURNE Lat: -31.96 Lon: 115.76 Height: 40.96 m
Data from the previous 72 hours. | See also: Recent months at Swanbourne
Date/Time
WST
Temp
°C
App
Temp
°C
Dew
Point
°C
Rel
Hum
%
Delta-T
°C
Wind Press
QNH
hPa
Press
MSL
hPa
Rain since
9am
mm
Dir  Spd
km/h
Gust
km/h
Spd
kts
Gust
kts
24/08:00am 10.9 7.6 6.5 74 2.1 SE 13 19 7 10 - - 0.0
24/07:30am 10.9 7.6 6.3 73 2.2 ESE 13 17 7 9 - - 0.0
24/07:00am 10.9 8.3 6.3 73 2.2 ESE 9 17 5 9 - - 0.0
24/06:30am 10.9 9.2 5.9 71 2.3 S 4 7 2 4 - - 0.0
24/06:00am 11.6 9.0 6.1 69 2.6 ESE 9 15 5 8 - - 0.0
24/05:30am 11.9 9.7 6.2 68 2.7 SE 7 17 4 9 - - 0.0
24/05:00am 12.0 9.0 6.1 67 2.8 ESE 11 26 6 14 - - 0.0
24/04:30am 12.2 7.7 6.3 67 2.8 ESE 19 33 10 18 - - 0.0
24/04:00am 12.2 8.9 6.5 68 2.7 ESE 13 26 7 14 - - 0.0
24/03:30am 12.4 8.5 6.9 69 2.6 ESE 17 28 9 15 - - 0.0
24/03:00am 12.5 8.6 7.2 70 2.6 ESE 17 24 9 13 - - 0.0
24/02:30am 12.8 9.0 7.5 70 2.6 ESE 17 30 9 16 - - 0.0
24/02:00am 12.6 8.9 7.9 73 2.3 ESE 17 26 9 14 - - 0.0
24/01:30am 12.6 8.3 7.9 73 2.3 E 20 30 11 16 - - 0.0
24/01:00am 12.8 8.8 8.1 73 2.3 ESE 19 32 10 17 - - 0.0
24/12:30am 13.1 8.9 8.2 72 2.4 ESE 20 32 11 17 - - 0.0
24/12:00am 13.5 9.3 8.4 71 2.5 ESE 20 30 11 16 - - 0.0
 
Date/Time
WST
Temp
°C
App
Temp
°C
Dew
Point
°C
Rel
Hum
%
Delta-T
°C
Wind Press
QNH
hPa
Press
MSL
hPa
Rain since
9am
mm
Dir  Spd
km/h
Gust
km/h
Spd
kts
Gust
kts
23/11:30pm 14.0 9.9 8.8 71 2.6 ESE 20 33 11 18 - - 0.0
23/11:00pm 14.5 10.8 9.5 72 2.6 ESE 19 32 10 17 - - 0.0
23/10:30pm 14.7 11.1 9.9 73 2.5 ESE 19 35 10 19 - - 0.0
23/10:00pm 14.8 11.1 10.2 74 2.4 ESE 20 30 11 16 - - 0.0
23/09:30pm 14.7 11.3 10.7 77 2.1 ESE 19 33 10 18 - - 0.0
23/09:00pm 14.6 12.4 10.8 78 2.0 SE 13 24 7 13 - - 0.0
23/08:30pm 14.6 12.0 10.8 78 2.0 ESE 15 28 8 15 - - 0.0
23/08:00pm 14.9 11.9 10.7 76 2.2 SE 17 26 9 14 - - 0.0
23/07:30pm 15.3 12.4 10.9 75 2.3 ESE 17 32 9 17 - - 0.0
23/07:00pm 15.7 13.2 10.9 73 2.6 ESE 15 24 8 13 - - 0.0
23/06:30pm 15.8 14.4 10.8 72 2.7 ESE 9 17 5 9 - - 0.0
23/06:00pm 16.3 13.3 10.6 69 3.0 ESE 17 26 9 14 - - 0.0
23/05:30pm 16.6 13.2 10.7 68 3.2 ESE 19 35 10 19 - - 0.0
23/05:00pm 16.9 14.0 11.0 68 3.2 ESE 17 28 9 15 - - 0.0
23/04:30pm 17.9 15.4 11.2 65 3.6 ESE 15 26 8 14 - - 0.0
23/04:00pm 18.3 15.8 11.1 63 3.9 ESE 15 22 8 12 - - 0.0
23/03:30pm 18.0 14.0 10.6 62 4.0 ESE 22 35 12 19 - - 0.0
23/03:00pm 18.1 15.3 11.2 64 3.8 ESE 17 26 9 14 - - 0.0
23/02:30pm 17.6 14.4 11.4 67 3.4 ESE 19 33 10 18 - - 0.0
23/02:00pm 18.0 14.6 11.3 65 3.6 ESE 20 32 11 17 - - 0.0
23/01:30pm 17.6 14.5 11.6 68 3.3 ESE 19 30 10 16 - - 0.0
23/01:00pm 16.8 13.2 11.7 72 2.8 ESE 22 37 12 20 - - 0.0
23/12:30pm 16.8 14.2 12.1 74 2.6 ESE 17 28 9 15 - - 0.0
23/12:00pm 16.7 13.8 12.3 75 2.4 ESE 19 32 10 17 - - 0.0
23/11:30am 16.0 12.3 12.6 80 1.9 ESE 24 37 13 20 - - 0.0
23/11:00am 15.6 13.0 13.1 85 1.4 ESE 19 33 10 18 - - 0.0
23/10:30am 15.3 13.1 13.3 88 1.1 ESE 17 30 9 16 - - 0.0
23/10:00am 14.7 12.6 13.6 93 0.6 ESE 17 28 9 15 - - 0.0
23/09:30am 14.4 12.0 13.9 97 0.3 SE 19 30 10 16 - - 0.0
23/09:00am 14.3 12.7 14.0 98 0.2 SE 15 24 8 13 - - 3.4
23/08:30am 14.2 13.0 13.9 98 0.2 SE 13 24 7 13 - - 3.4
23/08:00am 13.8 12.4 13.5 98 0.2 ESE 13 24 7 13 - - 3.4
23/07:30am 13.5 12.0 13.2 98 0.2 ESE 13 19 7 10 - - 3.4
23/07:00am 13.4 11.5 13.1 98 0.2 ESE 15 26 8 14 - - 3.4
23/06:30am 13.4 11.1 13.1 98 0.2 SE 17 28 9 15 - - 3.4
23/06:00am 13.3 11.0 13.0 98 0.2 SE 17 28 9 15 - - 3.4
23/05:30am 13.3 11.4 13.0 98 0.2 SE 15 24 8 13 - - 3.4
23/05:00am 13.2 10.9 12.9 98 0.2 SE 17 26 9 14 - - 3.4
23/04:30am 13.1 11.1 12.8 98 0.2 SE 15 24 8 13 - - 3.4
23/04:00am 13.1 11.9 12.8 98 0.2 SE 11 19 6 10 - - 3.4
23/03:30am 13.3 11.0 13.0 98 0.2 SE 17 30 9 16 - - 2.6
23/03:00am 13.2 10.9 12.9 98 0.2 SSE 17 26 9 14 - - 2.6
23/02:30am 13.2 11.3 12.9 98 0.2 SE 15 24 8 13 - - 2.6
23/02:00am 13.1 11.9 12.8 98 0.2 SE 11 19 6 10 - - 2.6
23/01:30am 13.0 11.4 12.7 98 0.2 SE 13 24 7 13 - - 2.0
23/01:00am 13.4 10.6 13.1 98 0.2 SSE 20 35 11 19 - - 0.8
23/12:30am 13.4 10.2 13.1 98 0.2 SSE 22 37 12 20 - - 0.8
23/12:00am 13.1 9.4 12.8 98 0.2 SSE 24 39 13 21 - - 0.8
 
Date/Time
WST
Temp
°C
App
Temp
°C
Dew
Point
°C
Rel
Hum
%
Delta-T
°C
Wind Press
QNH
hPa
Press
MSL
hPa
Rain since
9am
mm
Dir  Spd
km/h
Gust
km/h
Spd
kts
Gust
kts
22/11:30pm 13.0 9.7 12.7 98 0.2 SSE 22 39 12 21 - - 0.6
22/11:00pm 13.3 9.3 11.9 91 0.8 SSE 24 39 13 21 - - 0.2
22/10:30pm 13.6 9.5 11.3 86 1.2 SSE 24 43 13 23 - - 0.2
22/10:06pm 14.0 9.0 11.0 82 1.6 SSE 28 48 15 26 - - 0.2
22/10:00pm 14.0 9.7 10.8 81 1.7 SSE 24 43 13 23 - - 0.2
22/09:30pm 14.3 10.2 11.3 82 1.6 S 24 41 13 22 - - 0.2
22/09:00pm 14.6 9.8 11.6 82 1.6 S 28 46 15 25 - - 0.2
22/08:30pm 14.7 8.8 11.1 79 1.9 S 33 56 18 30 - - 0.2
22/08:00pm 14.8 8.5 11.0 78 2.0 S 35 56 19 30 - - 0.2
22/07:30pm 14.8 9.5 11.4 80 1.8 S 30 52 16 28 - - 0.2
22/07:13pm 14.6 9.0 11.6 82 1.6 S 32 52 17 28 - - 0.2
22/07:00pm 14.3 9.1 11.5 83 1.5 S 30 48 16 26 - - 0.2
22/06:43pm 14.4 9.1 11.4 82 1.6 S 30 50 16 27 - - 0.0
22/06:30pm 14.5 9.3 11.7 83 1.5 S 30 44 16 24 - - 0.0
22/06:15pm 14.9 9.7 11.7 81 1.7 S 30 56 16 30 - - 0.0
22/06:00pm 15.1 10.1 12.1 82 1.6 S 30 46 16 25 - - 0.0
22/05:44pm 15.3 9.7 11.5 78 2.0 S 32 50 17 27 - - 0.0
22/05:30pm 15.5 9.6 11.3 76 2.3 S 33 46 18 25 - - 0.0
22/05:03pm 15.9 11.1 11.5 75 2.4 SSW 28 46 15 25 - - 0.0
22/05:00pm 15.8 10.9 11.2 74 2.5 SSW 28 43 15 23 - - 0.0
22/04:30pm 15.9 11.2 12.1 78 2.1 SSW 28 41 15 22 - - 0.0
22/04:00pm 16.1 11.4 12.1 77 2.2 SSW 28 41 15 22 - - 0.0
22/03:30pm 15.8 11.5 12.0 78 2.1 SSW 26 39 14 21 - - 0.0
22/03:00pm 15.7 11.4 12.1 79 2.0 SSW 26 39 14 21 - - 0.0
22/02:30pm 15.8 11.9 12.0 78 2.1 SSW 24 35 13 19 - - 0.0
22/02:00pm 16.3 12.1 12.3 77 2.2 SSW 26 37 14 20 - - 0.0
22/01:30pm 16.2 11.3 12.4 78 2.1 SW 30 43 16 23 - - 0.0
22/01:00pm 16.2 11.3 12.6 79 2.0 SW 30 41 16 22 - - 0.0
22/12:30pm 16.3 11.9 13.0 81 1.8 SW 28 43 15 23 - - 0.0
22/12:00pm 16.4 11.7 13.3 82 1.7 SW 30 41 16 22 - - 0.0
22/11:30am 16.2 11.6 13.5 84 1.5 WSW 30 41 16 22 - - 0.0
22/11:00am 16.1 12.1 14.1 88 1.1 WSW 28 39 15 21 - - 0.0
22/10:30am 16.2 12.4 14.7 91 0.9 WSW 28 41 15 22 - - 0.0
22/10:00am 16.5 12.0 15.0 91 0.9 WSW 32 43 17 23 - - 0.0
22/09:30am 16.9 12.2 15.8 93 0.6 WSW 35 50 19 27 - - 0.0
22/09:00am 17.0 12.4 16.2 95 0.5 WSW 35 54 19 29 - - 37.2
22/08:43am 16.6 12.1 16.3 98 0.2 W 35 56 19 30 - - 37.2
22/08:30am 16.8 12.3 16.5 98 0.2 WSW 35 54 19 29 - - 37.2
22/08:00am 17.1 10.7 16.0 93 0.6 W 44 63 24 34 - - 37.0
22/07:30am 17.2 10.8 16.9 98 0.2 W 46 70 25 38 - - 37.0
22/07:01am 17.2 11.4 17.0 99 0.1 W 43 63 23 34 - - 36.8
22/07:00am 17.3 11.4 17.1 99 0.1 W 44 63 24 34 - - 36.8
22/06:30am 17.0 11.2 17.0 100 0.0 W 43 57 23 31 - - 36.8
22/06:04am 17.2 12.6 17.2 100 0.0 WNW 37 65 20 35 - - 35.8
22/06:00am 16.9 12.2 16.9 100 0.0 WNW 37 54 20 29 - - 35.8
22/05:30am 16.6 12.2 16.6 100 0.0 NW 35 54 19 29 - - 35.8
22/05:00am 15.5 10.7 15.5 100 0.0 NNW 35 63 19 34 - - 32.4
22/04:30am 14.6 7.7 14.6 100 0.0 NNW 44 69 24 37 - - 30.6
22/04:00am 15.8 8.9 15.5 98 0.2 NW 46 69 25 37 - - 21.8
22/03:40am 15.9 9.6 15.6 98 0.2 NW 43 61 23 33 - - 19.8
22/03:30am 15.8 9.3 15.0 95 0.5 NW 43 57 23 31 - - 19.4
22/03:20am 16.8 10.4 14.4 86 1.4 NW 41 61 22 33 - - 18.8
22/03:00am 15.6 9.9 15.1 97 0.3 NW 39 56 21 30 - - 18.8
22/02:32am 16.4 12.8 15.3 93 0.6 NW 28 63 15 34 - - 18.6
22/02:30am 15.7 12.6 14.4 92 0.7 NW 24 57 13 31 - - 18.6
22/02:22am 15.7 10.8 13.7 88 1.1 NW 32 50 17 27 - - 18.4
22/02:00am 16.3 10.7 13.2 82 1.7 NW 35 50 19 27 - - 18.2
22/01:31am 16.0 11.7 14.5 91 0.9 NW 30 48 16 26 - - 18.2
22/01:30am 16.2 12.0 14.7 91 0.9 NW 30 44 16 24 - - 18.2
22/01:12am 15.8 11.8 15.3 97 0.3 NW 30 48 16 26 - - 18.0
22/01:00am 15.5 12.6 15.2 98 0.2 NW 24 33 13 18 - - 18.0
22/12:30am 13.8 12.1 13.5 98 0.2 NNE 15 24 8 13 - - 18.0
22/12:00am 14.0 10.2 13.7 98 0.2 NW 26 43 14 23 - - 17.2
 
Date/Time
WST
Temp
°C
App
Temp
°C
Dew
Point
°C
Rel
Hum
%
Delta-T
°C
Wind Press
QNH
hPa
Press
MSL
hPa
Rain since
9am
mm
Dir  Spd
km/h
Gust
km/h
Spd
kts
Gust
kts
21/11:46pm 15.0 11.2 14.7 98 0.2 NNW 28 48 15 26 - - 16.0
21/11:30pm 15.1 13.0 14.8 98 0.2 NNW 19 28 10 15 - - 15.6
21/11:00pm 14.8 13.0 14.5 98 0.2 NW 17 32 9 17 - - 15.6
21/10:30pm 14.9 11.8 14.6 98 0.2 NW 24 35 13 19 - - 13.2
21/10:00pm 14.9 12.6 14.6 98 0.2 NW 20 32 11 17 - - 8.4
21/09:30pm 14.6 10.7 14.3 98 0.2 WNW 28 44 15 24 - - 8.0
21/09:06pm 15.7 9.4 14.6 93 0.6 NW 41 61 22 33 - - 6.8
21/09:00pm 15.0 9.2 13.9 93 0.6 WNW 37 54 20 29 - - 6.6
21/08:31pm 16.8 10.2 12.7 77 2.3 NW 39 59 21 32 - - 3.2
21/08:30pm 16.8 9.8 12.5 76 2.4 NW 41 59 22 32 - - 3.2
21/08:25pm 17.2 10.6 12.5 74 2.6 NW 39 59 21 32 - - 3.2
21/08:00pm 17.1 10.8 12.4 74 2.6 NW 37 54 20 29 - - 3.2
21/07:30pm 15.9 10.6 12.6 81 1.8 NW 32 54 17 29 - - 3.2
21/07:09pm 16.7 10.8 12.5 76 2.3 NW 35 59 19 32 - - 3.2
21/07:00pm 16.6 10.7 12.4 76 2.3 NW 35 46 19 25 - - 3.2
21/06:30pm 15.4 10.1 12.5 83 1.6 NNW 32 44 17 24 - - 3.2
21/06:13pm 16.8 10.6 11.5 71 2.9 NW 35 54 19 29 - - 3.0
21/06:00pm 16.5 10.7 12.7 78 2.1 NW 35 54 19 29 - - 3.0
21/05:30pm 15.5 11.9 13.2 86 1.3 NW 24 46 13 25 - - 3.0
21/05:00pm 17.2 12.5 12.1 72 2.8 NW 28 46 15 25 - - 2.4
21/04:59pm 17.2 12.5 11.9 71 2.9 NW 28 46 15 25 - - 2.4
21/04:30pm 17.3 12.3 12.2 72 2.8 NW 30 43 16 23 - - 2.4
21/04:00pm 17.0 11.9 11.9 72 2.8 NW 30 41 16 22 - - 2.4
21/03:30pm 17.3 11.4 11.1 67 3.4 NW 33 48 18 26 - - 2.0
21/03:00pm 17.5 12.0 12.0 70 3.0 NW 32 43 17 23 - - 2.0
21/02:43pm 16.7 12.1 12.3 75 2.4 NW 28 46 15 25 - - 2.0
21/02:30pm 18.3 12.4 10.4 60 4.2 NW 32 44 17 24 - - 1.6
21/02:00pm 17.9 12.0 10.3 61 4.1 NW 32 41 17 22 - - 1.6
21/01:30pm 18.7 12.8 10.3 58 4.5 NW 32 43 17 23 - - 1.6
21/01:00pm 19.0 13.2 9.5 54 5.0 NW 30 41 16 22 - - 1.6
21/12:30pm 18.9 13.2 9.7 55 4.9 NW 30 39 16 21 - - 1.6
21/12:00pm 17.6 12.5 10.5 63 3.8 NW 28 37 15 20 - - 1.6
21/11:30am 17.8 14.0 12.3 70 3.0 WNW 24 41 13 22 - - 1.6
21/11:00am 18.3 14.2 11.4 64 3.8 NW 24 37 13 20 - - 1.4
21/10:30am 17.0 12.9 11.3 69 3.1 NW 24 41 13 22 - - 1.4
21/10:00am 16.9 14.1 12.6 76 2.4 NW 19 26 10 14 - - 1.4
21/09:30am 16.1 12.7 11.1 72 2.7 NW 20 39 11 21 - - 1.4
21/09:00am 17.3 13.8 10.2 63 3.8 NW 19 28 10 15 - - 0.4
21/08:30am 13.9 13.0 10.5 80 1.8 ENE 6 9 3 5 - - 0.4

Other Formats:

Comma delimited format used in spreadsheet applications
http://www.bom.gov.au/fwo/IDW60801/IDW60801.94614.axf

JavaScript Object Notation format (JSON) in row-major order
http://www.bom.gov.au/fwo/IDW60801/IDW60801.94614.json